^^
Saratoga-Weather Station Historical Data
Daily Summary for February 23, 2020 Units:  Both    English   Metric
Daily Weekly Monthly Yearly Custom
  High: Low: Average:
Temperature: 64.8 °F /  18.2 °C 48.4 °F /  9.1 °C 55.8 °F /  13.2 °C
Dew Point: 57.4 °F /  14.1 °C 46.4 °F /  8 °C 50.5 °F /  10.3 °C
Humidity: 95% 57% 83%
Wind Speed: 10.1mph /  16.3km/h - 2.5mph /  4km/h
Wind Gust: 13mph /  20.9km/h - -
Wind- - West
Pressure: 30.4 in /  1028.8 hPa 30.1 in /  1020.0 hPa -
Precipitation: 0.33 in /  8.4 mm    
Historical Graphs
 
 
Tabular Data for February 23, 2020
Time Temperature Dew Point Pressure Wind Wind Speed Wind Gust Humidity Rainfall Rate (Hourly) solar
00:03 64.8 °F /  18.2 °C 57.4 °F /  14.1 °C 30.1in /  1020.0hPa West 6mph /  9.7km/h 9mph /  14.5km/h 77% 0in /  0.0mm 0 W/m2
00:08 64.6 °F /  18.1 °C 57.2 °F /  14 °C 30.1in /  1020.0hPa West 8.1mph /  13km/h 9mph /  14.5km/h 77% 0in /  0.0mm 0 W/m2
00:13 64.4 °F /  18 °C 57 °F /  13.9 °C 30.1in /  1020.0hPa West 8.1mph /  13km/h 8mph /  12.9km/h 77% 0in /  0.0mm 0 W/m2
00:18 64.2 °F /  17.9 °C 57.2 °F /  14 °C 30.1in /  1020.0hPa WSW 6.9mph /  11.1km/h 9mph /  14.5km/h 78% 0in /  0.0mm 0 W/m2
00:23 64 °F /  17.8 °C 57 °F /  13.9 °C 30.1in /  1020.0hPa WNW 6.9mph /  11.1km/h 9mph /  14.5km/h 78% 0in /  0.0mm 0 W/m2
00:28 64 °F /  17.8 °C 57 °F /  13.9 °C 30.1in /  1020.0hPa West 6mph /  9.7km/h 9mph /  14.5km/h 78% 0in /  0.0mm 0 W/m2
00:33 63.9 °F /  17.7 °C 56.8 °F /  13.8 °C 30.1in /  1020.0hPa WSW 6mph /  9.7km/h 9mph /  14.5km/h 78% 0in /  0.0mm 0 W/m2
00:38 63.9 °F /  17.7 °C 56.8 °F /  13.8 °C 30.1in /  1020.0hPa WNW 4mph /  6.4km/h 6mph /  9.7km/h 78% 0in /  0.0mm 0 W/m2
00:43 63.9 °F /  17.7 °C 57.2 °F /  14 °C 30.1in /  1020.0hPa West 6.9mph /  11.1km/h 7mph /  11.3km/h 79% 0in /  0.0mm 0 W/m2
00:48 63.7 °F /  17.6 °C 57 °F /  13.9 °C 30.1in /  1020.3hPa WNW 4.9mph /  7.9km/h 7mph /  11.3km/h 79% 0in /  0.0mm 0 W/m2
00:53 63.7 °F /  17.6 °C 57 °F /  13.9 °C 30.1in /  1020.3hPa WSW 6.9mph /  11.1km/h 8mph /  12.9km/h 79% 0in /  0.0mm 0 W/m2
00:58 63.5 °F /  17.5 °C 56.8 °F /  13.8 °C 30.1in /  1020.3hPa SW 2.9mph /  4.7km/h 4mph /  6.4km/h 79% 0in /  0.0mm 0 W/m2
01:03 63.5 °F /  17.5 °C 56.8 °F /  13.8 °C 30.1in /  1020.3hPa West 8.1mph /  13km/h 10mph /  16.1km/h 79% 0in /  0.0mm 0 W/m2
01:08 63.5 °F /  17.5 °C 56.5 °F /  13.6 °C 30.1in /  1020.0hPa West 2mph /  3.2km/h 6mph /  9.7km/h 78% 0in /  0.0mm 0 W/m2
01:13 63.3 °F /  17.4 °C 56.3 °F /  13.5 °C 30.1in /  1020.0hPa WSW 4.9mph /  7.9km/h 8mph /  12.9km/h 78% 0in /  0.0mm 0 W/m2
01:18 63.3 °F /  17.4 °C 56.7 °F /  13.7 °C 30.1in /  1020.0hPa West 4mph /  6.4km/h 7mph /  11.3km/h 79% 0in /  0.0mm 0 W/m2
01:23 63.3 °F /  17.4 °C 56.7 °F /  13.7 °C 30.1in /  1020.0hPa West 2mph /  3.2km/h 5mph /  8km/h 79% 0in /  0.0mm 0 W/m2
01:28 63.1 °F /  17.3 °C 56.5 °F /  13.6 °C 30.1in /  1020.3hPa West 0.9mph /  1.4km/h 5mph /  8km/h 79% 0in /  0.0mm 0 W/m2
01:33 63.1 °F /  17.3 °C 56.5 °F /  13.6 °C 30.1in /  1020.3hPa WNW 2.9mph /  4.7km/h 7mph /  11.3km/h 79% 0in /  0.0mm 0 W/m2
01:38 63.1 °F /  17.3 °C 56.5 °F /  13.6 °C 30.1in /  1020.3hPa West 2mph /  3.2km/h 3mph /  4.8km/h 79% 0in /  0.0mm 0 W/m2
01:43 63.1 °F /  17.3 °C 56.8 °F /  13.8 °C 30.1in /  1020.3hPa West 2mph /  3.2km/h 6mph /  9.7km/h 80% 0in /  0.0mm 0 W/m2
01:48 63 °F /  17.2 °C 56.7 °F /  13.7 °C 30.1in /  1020.3hPa West 4mph /  6.4km/h 4mph /  6.4km/h 80% 0in /  0.0mm 0 W/m2
01:53 63 °F /  17.2 °C 56.7 °F /  13.7 °C 30.1in /  1020.3hPa West 2.9mph /  4.7km/h 4mph /  6.4km/h 80% 0in /  0.0mm 0 W/m2
01:58 63 °F /  17.2 °C 56.7 °F /  13.7 °C 30.1in /  1020.3hPa West 6mph /  9.7km/h 6mph /  9.7km/h 80% 0in /  0.0mm 0 W/m2
02:03 63 °F /  17.2 °C 56.7 °F /  13.7 °C 30.1in /  1020.7hPa West 4mph /  6.4km/h 4mph /  6.4km/h 80% 0in /  0.0mm 0 W/m2
02:08 63 °F /  17.2 °C 56.7 °F /  13.7 °C 30.1in /  1020.7hPa West 2.9mph /  4.7km/h 5mph /  8km/h 80% 0in /  0.0mm 0 W/m2
02:13 63 °F /  17.2 °C 56.7 °F /  13.7 °C 30.1in /  1020.7hPa WNW 0.9mph /  1.4km/h 3mph /  4.8km/h 80% 0in /  0.0mm 0 W/m2
02:18 63 °F /  17.2 °C 56.7 °F /  13.7 °C 30.1in /  1020.7hPa West 2.9mph /  4.7km/h 3mph /  4.8km/h 80% 0in /  0.0mm 0 W/m2
02:23 63 °F /  17.2 °C 56.7 °F /  13.7 °C 30.1in /  1020.7hPa WNW 2.9mph /  4.7km/h 4mph /  6.4km/h 80% 0in /  0.0mm 0 W/m2
02:28 63 °F /  17.2 °C 56.7 °F /  13.7 °C 30.1in /  1020.7hPa West 2.9mph /  4.7km/h 4mph /  6.4km/h 80% 0in /  0.0mm 0 W/m2
02:33 63 °F /  17.2 °C 56.7 °F /  13.7 °C 30.1in /  1020.7hPa WNW 2.9mph /  4.7km/h 5mph /  8km/h 80% 0in /  0.0mm 0 W/m2
02:38 62.8 °F /  17.1 °C 56.5 °F /  13.6 °C 30.1in /  1020.7hPa WNW 2mph /  3.2km/h 4mph /  6.4km/h 80% 0in /  0.0mm 0 W/m2
02:43 62.6 °F /  17 °C 54.1 °F /  12.3 °C 30.1in /  1020.7hPa West 6mph /  9.7km/h 6mph /  9.7km/h 74% 0in /  0.0mm 0 W/m2
02:48 62.6 °F /  17 °C 52 °F /  11.1 °C 30.1in /  1020.7hPa WNW 8.9mph /  14.3km/h 9mph /  14.5km/h 68% 0in /  0.0mm 0 W/m2
02:53 62.6 °F /  17 °C 49.5 °F /  9.7 °C 30.1in /  1020.7hPa West 2.9mph /  4.7km/h 4mph /  6.4km/h 62% 0in /  0.0mm 0 W/m2
02:59 62.6 °F /  17 °C 48.9 °F /  9.4 °C 30.1in /  1020.7hPa West 4mph /  6.4km/h 4mph /  6.4km/h 61% 0in /  0.0mm 0 W/m2
03:04 62.4 °F /  16.9 °C 48.7 °F /  9.3 °C 30.2in /  1021.0hPa West 2.9mph /  4.7km/h 10mph /  16.1km/h 61% 0in /  0.0mm 0 W/m2
03:09 62.4 °F /  16.9 °C 49.3 °F /  9.6 °C 30.2in /  1021.0hPa WNW 2.9mph /  4.7km/h 4mph /  6.4km/h 62% 0in /  0.0mm 0 W/m2
03:14 62.2 °F /  16.8 °C 49.1 °F /  9.5 °C 30.1in /  1020.7hPa West 2.9mph /  4.7km/h 10mph /  16.1km/h 62% 0in /  0.0mm 0 W/m2
03:19 62.2 °F /  16.8 °C 49.5 °F /  9.7 °C 30.2in /  1021.0hPa NW 2.9mph /  4.7km/h 3mph /  4.8km/h 63% 0in /  0.0mm 0 W/m2
03:24 62.1 °F /  16.7 °C 49.3 °F /  9.6 °C 30.2in /  1021.0hPa WNW 0.9mph /  1.4km/h 7mph /  11.3km/h 63% 0in /  0.0mm 0 W/m2
03:29 62.1 °F /  16.7 °C 48.4 °F /  9.1 °C 30.2in /  1021.0hPa NW 4mph /  6.4km/h 4mph /  6.4km/h 61% 0in /  0.0mm 0 W/m2
03:34 62.1 °F /  16.7 °C 46.6 °F /  8.1 °C 30.2in /  1021.0hPa NE 0.9mph /  1.4km/h 5mph /  8km/h 57% 0in /  0.0mm 0 W/m2
03:39 61.9 °F /  16.6 °C 46.4 °F /  8 °C 30.2in /  1021.0hPa WNW 4mph /  6.4km/h 7mph /  11.3km/h 57% 0in /  0.0mm 0 W/m2
03:44 61.9 °F /  16.6 °C 46.9 °F /  8.3 °C 30.2in /  1021.0hPa NW 2.9mph /  4.7km/h 5mph /  8km/h 58% 0in /  0.0mm 0 W/m2
03:49 61.9 °F /  16.6 °C 46.9 °F /  8.3 °C 30.2in /  1021.0hPa WNW 4mph /  6.4km/h 4mph /  6.4km/h 58% 0in /  0.0mm 0 W/m2
03:54 61.5 °F /  16.4 °C 48 °F /  8.9 °C 30.2in /  1021.0hPa West 2.9mph /  4.7km/h 4mph /  6.4km/h 61% 0in /  0.0mm 0 W/m2
03:59 61.2 °F /  16.2 °C 48 °F /  8.9 °C 30.2in /  1021.0hPa West 2.9mph /  4.7km/h 4mph /  6.4km/h 62% 0in /  0.0mm 0 W/m2
04:04 60.6 °F /  15.9 °C 48 °F /  8.9 °C 30.2in /  1021.0hPa WNW 2mph /  3.2km/h 6mph /  9.7km/h 63% 0in /  0.0mm 0 W/m2
04:09 60.4 °F /  15.8 °C 48.2 °F /  9 °C 30.2in /  1021.0hPa WNW 0.9mph /  1.4km/h 4mph /  6.4km/h 64% 0in /  0.0mm 0 W/m2
04:14 60.3 °F /  15.7 °C 48 °F /  8.9 °C 30.2in /  1021.0hPa NW 2mph /  3.2km/h 5mph /  8km/h 64% 0in /  0.0mm 0 W/m2
04:19 60.1 °F /  15.6 °C 48.2 °F /  9 °C 30.2in /  1021.3hPa WNW 4mph /  6.4km/h 4mph /  6.4km/h 65% 0in /  0.0mm 0 W/m2
04:24 60.1 °F /  15.6 °C 47.8 °F /  8.8 °C 30.2in /  1021.3hPa West 4mph /  6.4km/h 8mph /  12.9km/h 64% 0in /  0.0mm 0 W/m2
04:29 60.1 °F /  15.6 °C 48.7 °F /  9.3 °C 30.2in /  1021.3hPa West 2mph /  3.2km/h 6mph /  9.7km/h 66% 0in /  0.0mm 0 W/m2
04:34 59.7 °F /  15.4 °C 49.1 °F /  9.5 °C 30.2in /  1021.3hPa NW 4.9mph /  7.9km/h 5mph /  8km/h 68% 0in /  0.0mm 0 W/m2
04:39 59.2 °F /  15.1 °C 49.1 °F /  9.5 °C 30.2in /  1021.3hPa West 2.9mph /  4.7km/h 6mph /  9.7km/h 69% 0in /  0.0mm 0 W/m2
04:44 58.8 °F /  14.9 °C 49.5 °F /  9.7 °C 30.2in /  1021.0hPa West 2mph /  3.2km/h 4mph /  6.4km/h 71% 0in /  0.0mm 0 W/m2
04:49 58.5 °F /  14.7 °C 49.5 °F /  9.7 °C 30.2in /  1021.0hPa West 2.9mph /  4.7km/h 3mph /  4.8km/h 72% 0in /  0.0mm 0 W/m2
04:54 58.1 °F /  14.5 °C 50.2 °F /  10.1 °C 30.2in /  1021.0hPa West 0.9mph /  1.4km/h 2mph /  3.2km/h 75% 0in /  0.0mm 0 W/m2
04:59 57.7 °F /  14.3 °C 50.5 °F /  10.3 °C 30.2in /  1021.0hPa West 0.9mph /  1.4km/h 1mph /  1.6km/h 77% 0in /  0.0mm 0 W/m2
05:04 57.4 °F /  14.1 °C 50.9 °F /  10.5 °C 30.2in /  1021.0hPa Calm   2mph /  3.2km/h 79% 0in /  0.0mm 0 W/m2
05:09 57 °F /  13.9 °C 50.5 °F /  10.3 °C 30.2in /  1021.0hPa West 0.9mph /  1.4km/h 2mph /  3.2km/h 79% 0in /  0.0mm 0 W/m2
05:14 56.8 °F /  13.8 °C 50.7 °F /  10.4 °C 30.2in /  1021.0hPa Calm   1mph /  1.6km/h 80% 0in /  0.0mm 0 W/m2
05:19 56.7 °F /  13.7 °C 50.9 °F /  10.5 °C 30.2in /  1021.0hPa West 0.9mph /  1.4km/h 2mph /  3.2km/h 81% 0in /  0.0mm 0 W/m2
05:24 56.5 °F /  13.6 °C 50.7 °F /  10.4 °C 30.2in /  1021.0hPa SW 2mph /  3.2km/h 3mph /  4.8km/h 81% 0in /  0.0mm 0 W/m2
05:29 56.5 °F /  13.6 °C 50.4 °F /  10.2 °C 30.2in /  1021.0hPa West 0.9mph /  1.4km/h 1mph /  1.6km/h 80% 0in /  0.0mm 0 W/m2
05:34 56.7 °F /  13.7 °C 50.5 °F /  10.3 °C 30.2in /  1021.0hPa West 2mph /  3.2km/h 3mph /  4.8km/h 80% 0in /  0.0mm 0 W/m2
05:39 56.7 °F /  13.7 °C 50.2 °F /  10.1 °C 30.2in /  1021.0hPa WNW 0.9mph /  1.4km/h 2mph /  3.2km/h 79% 0in /  0.0mm 0 W/m2
05:45 56.7 °F /  13.7 °C 50.2 °F /  10.1 °C 30.2in /  1021.0hPa NW 0.9mph /  1.4km/h 2mph /  3.2km/h 79% 0in /  0.0mm 0 W/m2
05:50 56.7 °F /  13.7 °C 50.2 °F /  10.1 °C 30.2in /  1021.0hPa NW 0.9mph /  1.4km/h 2mph /  3.2km/h 79% 0in /  0.0mm 0 W/m2
05:55 56.8 °F /  13.8 °C 50.4 °F /  10.2 °C 30.2in /  1021.0hPa WNW 0.9mph /  1.4km/h 2mph /  3.2km/h 79% 0in /  0.0mm 0 W/m2
06:00 56.7 °F /  13.7 °C 50.2 °F /  10.1 °C 30.2in /  1021.0hPa West 0.9mph /  1.4km/h 2mph /  3.2km/h 79% 0in /  0.0mm 0 W/m2
06:05 56.8 °F /  13.8 °C 50.4 °F /  10.2 °C 30.2in /  1021.0hPa Calm   2mph /  3.2km/h 79% 0in /  0.0mm 0 W/m2
06:10 56.8 °F /  13.8 °C 50.7 °F /  10.4 °C 30.2in /  1021.0hPa Calm   1mph /  1.6km/h 80% 0in /  0.0mm 0 W/m2
06:15 56.8 °F /  13.8 °C 51.1 °F /  10.6 °C 30.2in /  1021.0hPa WNW 2mph /  3.2km/h 2mph /  3.2km/h 81% 0in /  0.0mm 5 W/m2
06:20 56.8 °F /  13.8 °C 51.1 °F /  10.6 °C 30.2in /  1021.3hPa West 2.9mph /  4.7km/h 3mph /  4.8km/h 81% 0in /  0.0mm 7 W/m2
06:25 56.7 °F /  13.7 °C 50.9 °F /  10.5 °C 30.2in /  1021.3hPa WNW 0.9mph /  1.4km/h 2mph /  3.2km/h 81% 0in /  0.0mm 9 W/m2
06:30 56.7 °F /  13.7 °C 51.3 °F /  10.7 °C 30.2in /  1021.3hPa NW 2.9mph /  4.7km/h 6mph /  9.7km/h 82% 0in /  0.0mm 14 W/m2
06:35 56.7 °F /  13.7 °C 51.3 °F /  10.7 °C 30.2in /  1021.3hPa West 2mph /  3.2km/h 4mph /  6.4km/h 82% 0in /  0.0mm 23 W/m2
06:40 56.5 °F /  13.6 °C 51.1 °F /  10.6 °C 30.2in /  1021.3hPa NW 2mph /  3.2km/h 5mph /  8km/h 82% 0in /  0.0mm 21 W/m2
06:45 56.5 °F /  13.6 °C 51.4 °F /  10.8 °C 30.2in /  1021.7hPa West 4mph /  6.4km/h 8mph /  12.9km/h 83% 0in /  0.0mm 14 W/m2
06:50 56.5 °F /  13.6 °C 51.4 °F /  10.8 °C 30.2in /  1021.3hPa West 2.9mph /  4.7km/h 7mph /  11.3km/h 83% 0in /  0.0mm 12 W/m2
06:55 56.3 °F /  13.5 °C 51.3 °F /  10.7 °C 30.2in /  1021.3hPa West 2mph /  3.2km/h 3mph /  4.8km/h 83% 0in /  0.0mm 11 W/m2
07:00 56.3 °F /  13.5 °C 51.3 °F /  10.7 °C 30.2in /  1021.7hPa WSW 2.9mph /  4.7km/h 6mph /  9.7km/h 83% 0in /  0.0mm 11 W/m2
07:05 56.3 °F /  13.5 °C 50.9 °F /  10.5 °C 30.2in /  1021.7hPa NW 2.9mph /  4.7km/h 8mph /  12.9km/h 82% 0in /  0.0mm 19 W/m2
07:10 56.5 °F /  13.6 °C 51.4 °F /  10.8 °C 30.2in /  1022.0hPa West 6mph /  9.7km/h 7mph /  11.3km/h 83% 0in /  0.0mm 23 W/m2
07:15 56.3 °F /  13.5 °C 50.9 °F /  10.5 °C 30.2in /  1021.7hPa West 2mph /  3.2km/h 8mph /  12.9km/h 82% 0in /  0.0mm 19 W/m2
07:20 56.1 °F /  13.4 °C 51.1 °F /  10.6 °C 30.2in /  1021.7hPa West 6mph /  9.7km/h 6mph /  9.7km/h 83% 0in /  0.0mm 18 W/m2
07:25 55.9 °F /  13.3 °C 50.9 °F /  10.5 °C 30.2in /  1021.7hPa West 2mph /  3.2km/h 4mph /  6.4km/h 83% 0in /  0.0mm 16 W/m2
07:30 55.9 °F /  13.3 °C 50.9 °F /  10.5 °C 30.2in /  1021.7hPa WNW 2mph /  3.2km/h 3mph /  4.8km/h 83% 0in /  0.0mm 19 W/m2
07:35 55.9 °F /  13.3 °C 50.9 °F /  10.5 °C 30.2in /  1021.3hPa West 2.9mph /  4.7km/h 6mph /  9.7km/h 83% 0in /  0.0mm 18 W/m2
07:40 55.9 °F /  13.3 °C 51.3 °F /  10.7 °C 30.2in /  1021.7hPa WNW 0.9mph /  1.4km/h 1mph /  1.6km/h 84% 0in /  0.0mm 19 W/m2
07:45 55.9 °F /  13.3 °C 51.3 °F /  10.7 °C 30.2in /  1021.7hPa NW 0.9mph /  1.4km/h 6mph /  9.7km/h 84% 0in /  0.0mm 23 W/m2
07:50 55.9 °F /  13.3 °C 51.4 °F /  10.8 °C 30.2in /  1021.7hPa WNW 2mph /  3.2km/h 4mph /  6.4km/h 85% 0in /  0.0mm 21 W/m2
07:55 55.9 °F /  13.3 °C 51.4 °F /  10.8 °C 30.2in /  1021.7hPa NW 0.9mph /  1.4km/h 2mph /  3.2km/h 85% 0in /  0.0mm 21 W/m2
08:00 55.9 °F /  13.3 °C 51.4 °F /  10.8 °C 30.2in /  1021.7hPa West 0.9mph /  1.4km/h 4mph /  6.4km/h 85% 0in /  0.0mm 28 W/m2
08:05 55.8 °F /  13.2 °C 51.6 °F /  10.9 °C 30.2in /  1022.0hPa West 2mph /  3.2km/h 2mph /  3.2km/h 86% 0.01in /  0.2mm 26 W/m2
08:10 55.6 °F /  13.1 °C 51.4 °F /  10.8 °C 30.2in /  1021.7hPa West 2mph /  3.2km/h 3mph /  4.8km/h 86% 0.01in /  0.2mm 21 W/m2
08:15 55.2 °F /  12.9 °C 51.1 °F /  10.6 °C 30.2in /  1022.0hPa WSW 2mph /  3.2km/h 6mph /  9.7km/h 86% 0.01in /  0.2mm 23 W/m2
08:20 54.9 °F /  12.7 °C 51.1 °F /  10.6 °C 30.2in /  1022.0hPa WSW 4mph /  6.4km/h 7mph /  11.3km/h 87% 0.02in /  0.5mm 19 W/m2
08:25 54.7 °F /  12.6 °C 50.9 °F /  10.5 °C 30.2in /  1022.4hPa WSW 2mph /  3.2km/h 5mph /  8km/h 87% 0.02in /  0.5mm 23 W/m2
08:30 54.5 °F /  12.5 °C 50.7 °F /  10.4 °C 30.2in /  1022.4hPa West 4mph /  6.4km/h 4mph /  6.4km/h 87% 0.02in /  0.5mm 30 W/m2
08:35 54.3 °F /  12.4 °C 50.9 °F /  10.5 °C 30.2in /  1022.7hPa WNW 6.9mph /  11.1km/h 8mph /  12.9km/h 88% 0.02in /  0.5mm 33 W/m2
08:40 54.1 °F /  12.3 °C 50.4 °F /  10.2 °C 30.2in /  1022.7hPa West 6mph /  9.7km/h 9mph /  14.5km/h 87% 0.02in /  0.5mm 35 W/m2
08:45 54.1 °F /  12.3 °C 50.4 °F /  10.2 °C 30.2in /  1023.0hPa WSW 6.9mph /  11.1km/h 11mph /  17.7km/h 87% 0.03in /  0.8mm 58 W/m2
08:50 54 °F /  12.2 °C 49.8 °F /  9.9 °C 30.2in /  1023.0hPa WNW 4mph /  6.4km/h 8mph /  12.9km/h 86% 0.04in /  1.0mm 63 W/m2
08:55 53.4 °F /  11.9 °C 48.4 °F /  9.1 °C 30.2in /  1023.0hPa WNW 4.9mph /  7.9km/h 12mph /  19.3km/h 83% 0.06in /  1.5mm 49 W/m2
09:00 53.1 °F /  11.7 °C 47.7 °F /  8.7 °C 30.2in /  1023.0hPa WSW 4.9mph /  7.9km/h 8mph /  12.9km/h 82% 0.06in /  1.5mm 47 W/m2
09:05 52.5 °F /  11.4 °C 48.2 °F /  9 °C 30.2in /  1023.0hPa WSW 2mph /  3.2km/h 12mph /  19.3km/h 85% 0.06in /  1.5mm 51 W/m2
09:10 52.3 °F /  11.3 °C 48.2 °F /  9 °C 30.2in /  1023.0hPa West 0.9mph /  1.4km/h 2mph /  3.2km/h 86% 0.06in /  1.5mm 58 W/m2
09:15 52.2 °F /  11.2 °C 48.7 °F /  9.3 °C 30.2in /  1023.4hPa Calm   2mph /  3.2km/h 88% 0.06in /  1.5mm 53 W/m2
09:20 52 °F /  11.1 °C 48.9 °F /  9.4 °C 30.2in /  1023.4hPa West 2mph /  3.2km/h 2mph /  3.2km/h 89% 0.06in /  1.5mm 58 W/m2
09:25 52.2 °F /  11.2 °C 49.1 °F /  9.5 °C 30.2in /  1023.4hPa WNW 2mph /  3.2km/h 2mph /  3.2km/h 89% 0.06in /  1.5mm 60 W/m2
09:30 52.2 °F /  11.2 °C 49.1 °F /  9.5 °C 30.2in /  1023.7hPa WSW 2.9mph /  4.7km/h 6mph /  9.7km/h 89% 0.06in /  1.5mm 77 W/m2
09:35 52.2 °F /  11.2 °C 48.7 °F /  9.3 °C 30.2in /  1023.7hPa WNW 10.1mph /  16.3km/h 11mph /  17.7km/h 88% 0.06in /  1.5mm 65 W/m2
09:40 52.3 °F /  11.3 °C 48.9 °F /  9.4 °C 30.2in /  1024.0hPa West 2.9mph /  4.7km/h 4mph /  6.4km/h 88% 0.06in /  1.5mm 62 W/m2
09:45 52.3 °F /  11.3 °C 48.9 °F /  9.4 °C 30.2in /  1024.0hPa West 4mph /  6.4km/h 11mph /  17.7km/h 88% 0.06in /  1.5mm 51 W/m2
09:50 52.2 °F /  11.2 °C 48.7 °F /  9.3 °C 30.2in /  1024.0hPa NNW 4mph /  6.4km/h 9mph /  14.5km/h 88% 0.05in /  1.3mm 62 W/m2
09:55 52.2 °F /  11.2 °C 48.7 °F /  9.3 °C 30.2in /  1024.0hPa West 2mph /  3.2km/h 8mph /  12.9km/h 88% 0.04in /  1.0mm 63 W/m2
10:00 52.2 °F /  11.2 °C 48.7 °F /  9.3 °C 30.2in /  1024.0hPa West 2.9mph /  4.7km/h 11mph /  17.7km/h 88% 0.04in /  1.0mm 60 W/m2
10:05 51.8 °F /  11 °C 48.4 °F /  9.1 °C 30.3in /  1024.4hPa WSW 6.9mph /  11.1km/h 8mph /  12.9km/h 88% 0.03in /  0.8mm 53 W/m2
10:10 51.6 °F /  10.9 °C 48.2 °F /  9 °C 30.3in /  1024.4hPa WNW 2mph /  3.2km/h 7mph /  11.3km/h 88% 0.04in /  1.0mm 44 W/m2
10:15 51.4 °F /  10.8 °C 48.4 °F /  9.1 °C 30.3in /  1024.4hPa WSW 2.9mph /  4.7km/h 12mph /  19.3km/h 89% 0.05in /  1.3mm 47 W/m2
10:20 51.3 °F /  10.7 °C 48.2 °F /  9 °C 30.3in /  1024.4hPa WSW 8.1mph /  13km/h 8mph /  12.9km/h 89% 0.06in /  1.5mm 56 W/m2
10:25 50.9 °F /  10.5 °C 48 °F /  8.9 °C 30.3in /  1024.7hPa WSW 4.9mph /  7.9km/h 9mph /  14.5km/h 90% 0.07in /  1.8mm 72 W/m2
10:30 50.7 °F /  10.4 °C 47.8 °F /  8.8 °C 30.3in /  1024.4hPa West 6mph /  9.7km/h 8mph /  12.9km/h 90% 0.07in /  1.8mm 86 W/m2
10:35 50.5 °F /  10.3 °C 48 °F /  8.9 °C 30.3in /  1024.4hPa WNW 2mph /  3.2km/h 4mph /  6.4km/h 91% 0.08in /  2.0mm 84 W/m2
10:40 50.5 °F /  10.3 °C 48 °F /  8.9 °C 30.3in /  1024.4hPa WNW 2mph /  3.2km/h 3mph /  4.8km/h 91% 0.08in /  2.0mm 98 W/m2
10:45 50.7 °F /  10.4 °C 48.2 °F /  9 °C 30.3in /  1024.4hPa West 2mph /  3.2km/h 3mph /  4.8km/h 91% 0.09in /  2.3mm 109 W/m2
10:50 50.7 °F /  10.4 °C 48.2 °F /  9 °C 30.3in /  1024.7hPa West 2mph /  3.2km/h 4mph /  6.4km/h 91% 0.09in /  2.3mm 114 W/m2
10:56 50.7 °F /  10.4 °C 48.6 °F /  9.2 °C 30.3in /  1024.7hPa WSW 2mph /  3.2km/h 3mph /  4.8km/h 92% 0.09in /  2.3mm 105 W/m2
11:01 50.9 °F /  10.5 °C 48.7 °F /  9.3 °C 30.3in /  1024.7hPa West 2mph /  3.2km/h 4mph /  6.4km/h 92% 0.09in /  2.3mm 70 W/m2
11:06 50.9 °F /  10.5 °C 48.7 °F /  9.3 °C 30.3in /  1025.1hPa WSW 2.9mph /  4.7km/h 5mph /  8km/h 92% 0.09in /  2.3mm 65 W/m2
11:11 51.1 °F /  10.6 °C 48.9 °F /  9.4 °C 30.3in /  1025.1hPa West 2mph /  3.2km/h 3mph /  4.8km/h 92% 0.08in /  2.0mm 46 W/m2
11:16 50.9 °F /  10.5 °C 48.7 °F /  9.3 °C 30.3in /  1025.1hPa West 2.9mph /  4.7km/h 6mph /  9.7km/h 92% 0.07in /  1.8mm 84 W/m2
11:21 50.7 °F /  10.4 °C 47.8 °F /  8.8 °C 30.3in /  1025.1hPa West 4mph /  6.4km/h 9mph /  14.5km/h 90% 0.06in /  1.5mm 109 W/m2
11:26 50.7 °F /  10.4 °C 47.8 °F /  8.8 °C 30.3in /  1025.1hPa West 2mph /  3.2km/h 7mph /  11.3km/h 90% 0.06in /  1.5mm 144 W/m2
11:31 50.7 °F /  10.4 °C 47.7 °F /  8.7 °C 30.3in /  1025.1hPa West 2mph /  3.2km/h 8mph /  12.9km/h 89% 0.05in /  1.3mm 151 W/m2
11:36 50.7 °F /  10.4 °C 47.3 °F /  8.5 °C 30.3in /  1025.1hPa West 8.9mph /  14.3km/h 9mph /  14.5km/h 88% 0.04in /  1.0mm 137 W/m2
11:41 50.5 °F /  10.3 °C 47.1 °F /  8.4 °C 30.3in /  1025.1hPa West 4mph /  6.4km/h 6mph /  9.7km/h 88% 0.04in /  1.0mm 121 W/m2
11:46 50.7 °F /  10.4 °C 47.3 °F /  8.5 °C 30.3in /  1025.1hPa West 9mph /  14.5km/h 9mph /  14.5km/h 88% 0.04in /  1.0mm 116 W/m2
11:52 50.5 °F /  10.3 °C 47.1 °F /  8.4 °C 30.3in /  1025.1hPa West 2.9mph /  4.7km/h 4mph /  6.4km/h 88% 0.03in /  0.8mm 125 W/m2
11:57 50.5 °F /  10.3 °C 47.1 °F /  8.4 °C 30.3in /  1025.1hPa NNE 2.9mph /  4.7km/h 6mph /  9.7km/h 88% 0.04in /  1.0mm 125 W/m2
12:02 50.7 °F /  10.4 °C 47.3 °F /  8.5 °C 30.3in /  1025.1hPa WNW 2mph /  3.2km/h 4mph /  6.4km/h 88% 0.03in /  0.8mm 121 W/m2
12:07 50.9 °F /  10.5 °C 47.8 °F /  8.8 °C 30.3in /  1025.4hPa NW 0.9mph /  1.4km/h 5mph /  8km/h 89% 0.03in /  0.8mm 120 W/m2
12:12 50.9 °F /  10.5 °C 48 °F /  8.9 °C 30.3in /  1025.1hPa WSW 2.9mph /  4.7km/h 3mph /  4.8km/h 90% 0.03in /  0.8mm 123 W/m2
12:17 50.9 °F /  10.5 °C 48 °F /  8.9 °C 30.3in /  1025.1hPa WSW 0.9mph /  1.4km/h 2mph /  3.2km/h 90% 0.03in /  0.8mm 114 W/m2
12:22 51.1 °F /  10.6 °C 48.6 °F /  9.2 °C 30.3in /  1025.1hPa Calm   3mph /  4.8km/h 91% 0.02in /  0.5mm 116 W/m2
12:27 51.1 °F /  10.6 °C 48.6 °F /  9.2 °C 30.3in /  1025.1hPa Calm   2mph /  3.2km/h 91% 0.03in /  0.8mm 93 W/m2
12:32 51.1 °F /  10.6 °C 48.6 °F /  9.2 °C 30.3in /  1025.1hPa WSW 0.9mph /  1.4km/h 2mph /  3.2km/h 91% 0.02in /  0.5mm 146 W/m2
12:37 51.1 °F /  10.6 °C 48.6 °F /  9.2 °C 30.3in /  1025.1hPa WSW 2mph /  3.2km/h 2mph /  3.2km/h 91% 0.02in /  0.5mm 130 W/m2
12:42 51.1 °F /  10.6 °C 48.2 °F /  9 °C 30.3in /  1025.4hPa Calm   1mph /  1.6km/h 90% 0.02in /  0.5mm 139 W/m2
12:47 51.3 °F /  10.7 °C 48.7 °F /  9.3 °C 30.3in /  1025.1hPa Calm   2mph /  3.2km/h 91% 0.02in /  0.5mm 165 W/m2
12:52 51.4 °F /  10.8 °C 48.6 °F /  9.2 °C 30.3in /  1025.1hPa Calm   1mph /  1.6km/h 90% 0.02in /  0.5mm 197 W/m2
12:57 51.4 °F /  10.8 °C 48.4 °F /  9.1 °C 30.3in /  1025.1hPa Calm   2mph /  3.2km/h 89% 0.01in /  0.2mm 142 W/m2
13:02 51.6 °F /  10.9 °C 48.6 °F /  9.2 °C 30.3in /  1025.1hPa Calm   1mph /  1.6km/h 89% 0.01in /  0.2mm 178 W/m2
13:07 52 °F /  11.1 °C 48.9 °F /  9.4 °C 30.3in /  1025.1hPa West 2mph /  3.2km/h 3mph /  4.8km/h 89% 0.01in /  0.2mm 162 W/m2
13:12 52 °F /  11.1 °C 48.9 °F /  9.4 °C 30.3in /  1025.1hPa West 0.9mph /  1.4km/h 2mph /  3.2km/h 89% 0.01in /  0.2mm 185 W/m2
13:17 52.2 °F /  11.2 °C 49.1 °F /  9.5 °C 30.3in /  1025.1hPa West 0.9mph /  1.4km/h 3mph /  4.8km/h 89% 0.01in /  0.2mm 216 W/m2
13:22 52.3 °F /  11.3 °C 48.9 °F /  9.4 °C 30.3in /  1025.1hPa West 0.9mph /  1.4km/h 3mph /  4.8km/h 88% 0.01in /  0.2mm 243 W/m2
13:27 52.5 °F /  11.4 °C 49.1 °F /  9.5 °C 30.3in /  1025.1hPa Calm   1mph /  1.6km/h 88% 0in /  0.0mm 236 W/m2
13:32 52.9 °F /  11.6 °C 49.5 °F /  9.7 °C 30.3in /  1025.1hPa West 4mph /  6.4km/h 4mph /  6.4km/h 88% 0in /  0.0mm 301 W/m2
13:37 52.9 °F /  11.6 °C 49.5 °F /  9.7 °C 30.3in /  1025.1hPa West 2.9mph /  4.7km/h 4mph /  6.4km/h 88% 0in /  0.0mm 309 W/m2
13:42 53.1 °F /  11.7 °C 49.6 °F /  9.8 °C 30.3in /  1025.1hPa West 2.9mph /  4.7km/h 4mph /  6.4km/h 88% 0in /  0.0mm 394 W/m2
13:47 53.4 °F /  11.9 °C 50.2 °F /  10.1 °C 30.3in /  1025.1hPa NW 4mph /  6.4km/h 4mph /  6.4km/h 89% 0in /  0.0mm 450 W/m2
13:52 53.6 °F /  12 °C 50.2 °F /  10.1 °C 30.3in /  1025.1hPa West 0.9mph /  1.4km/h 3mph /  4.8km/h 88% 0in /  0.0mm 404 W/m2
13:57 54 °F /  12.2 °C 50.2 °F /  10.1 °C 30.3in /  1025.1hPa SW 0.9mph /  1.4km/h 1mph /  1.6km/h 87% 0in /  0.0mm 378 W/m2
14:02 54.3 °F /  12.4 °C 50.2 °F /  10.1 °C 30.3in /  1025.1hPa NW 4mph /  6.4km/h 4mph /  6.4km/h 86% 0in /  0.0mm 466 W/m2
14:07 54.3 °F /  12.4 °C 49.8 °F /  9.9 °C 30.3in /  1025.4hPa WNW 2mph /  3.2km/h 9mph /  14.5km/h 85% 0in /  0.0mm 403 W/m2
14:12 54.7 °F /  12.6 °C 50.5 °F /  10.3 °C 30.3in /  1025.4hPa WNW 2mph /  3.2km/h 5mph /  8km/h 86% 0in /  0.0mm 534 W/m2
14:17 54.9 °F /  12.7 °C 50.4 °F /  10.2 °C 30.3in /  1025.4hPa West 2.9mph /  4.7km/h 3mph /  4.8km/h 85% 0in /  0.0mm 366 W/m2
14:22 54.9 °F /  12.7 °C 49.5 °F /  9.7 °C 30.3in /  1025.4hPa West 6mph /  9.7km/h 9mph /  14.5km/h 82% 0in /  0.0mm 417 W/m2
14:27 54.9 °F /  12.7 °C 50.4 °F /  10.2 °C 30.3in /  1025.7hPa WSW 2mph /  3.2km/h 6mph /  9.7km/h 85% 0in /  0.0mm 345 W/m2
14:32 54.9 °F /  12.7 °C 50.2 °F /  10.1 °C 30.3in /  1025.7hPa West 2.9mph /  4.7km/h 4mph /  6.4km/h 84% 0in /  0.0mm 394 W/m2
14:37 55 °F /  12.8 °C 50.4 °F /  10.2 °C 30.3in /  1025.7hPa NW 4mph /  6.4km/h 9mph /  14.5km/h 84% 0in /  0.0mm 682 W/m2
14:42 55 °F /  12.8 °C 49.3 °F /  9.6 °C 30.3in /  1026.1hPa WSW 4.9mph /  7.9km/h 8mph /  12.9km/h 81% 0in /  0.0mm 519 W/m2
14:47 55.2 °F /  12.9 °C 50.2 °F /  10.1 °C 30.3in /  1025.7hPa North 2mph /  3.2km/h 7mph /  11.3km/h 83% 0in /  0.0mm 267 W/m2
14:52 55 °F /  12.8 °C 50 °F /  10 °C 30.3in /  1025.7hPa West 4mph /  6.4km/h 6mph /  9.7km/h 83% 0in /  0.0mm 376 W/m2
14:57 55 °F /  12.8 °C 50.4 °F /  10.2 °C 30.3in /  1025.7hPa WSW 2.9mph /  4.7km/h 7mph /  11.3km/h 84% 0in /  0.0mm 362 W/m2
15:02 55.4 °F /  13 °C 50.7 °F /  10.4 °C 30.3in /  1026.1hPa NW 2.9mph /  4.7km/h 3mph /  4.8km/h 84% 0in /  0.0mm 380 W/m2
15:08 55.8 °F /  13.2 °C 50.7 °F /  10.4 °C 30.3in /  1026.1hPa West 2mph /  3.2km/h 7mph /  11.3km/h 83% 0in /  0.0mm 401 W/m2
15:13 55.9 °F /  13.3 °C 50.9 °F /  10.5 °C 30.3in /  1025.7hPa North 6mph /  9.7km/h 7mph /  11.3km/h 83% 0in /  0.0mm 441 W/m2
15:18 55.9 °F /  13.3 °C 50.5 °F /  10.3 °C 30.3in /  1026.1hPa NNW 2.9mph /  4.7km/h 3mph /  4.8km/h 82% 0in /  0.0mm 448 W/m2
15:23 56.5 °F /  13.6 °C 51.1 °F /  10.6 °C 30.3in /  1026.1hPa West 4mph /  6.4km/h 8mph /  12.9km/h 82% 0in /  0.0mm 531 W/m2
15:28 56.7 °F /  13.7 °C 50.5 °F /  10.3 °C 30.3in /  1026.1hPa WNW 2mph /  3.2km/h 6mph /  9.7km/h 80% 0in /  0.0mm 396 W/m2
15:33 56.7 °F /  13.7 °C 50.9 °F /  10.5 °C 30.3in /  1025.7hPa West 2.9mph /  4.7km/h 6mph /  9.7km/h 81% 0in /  0.0mm 406 W/m2
15:38 56.5 °F /  13.6 °C 49.6 °F /  9.8 °C 30.3in /  1025.7hPa WSW 4mph /  6.4km/h 13mph /  20.9km/h 78% 0in /  0.0mm 432 W/m2
15:43 56.7 °F /  13.7 °C 50.5 °F /  10.3 °C 30.3in /  1025.7hPa NW 4.9mph /  7.9km/h 5mph /  8km/h 80% 0in /  0.0mm 543 W/m2
15:48 57 °F /  13.9 °C 50.5 °F /  10.3 °C 30.3in /  1026.1hPa NW 4.9mph /  7.9km/h 13mph /  20.9km/h 79% 0in /  0.0mm 429 W/m2
15:53 57 °F /  13.9 °C 50.2 °F /  10.1 °C 30.3in /  1025.7hPa South 0.9mph /  1.4km/h 4mph /  6.4km/h 78% 0in /  0.0mm 399 W/m2
15:58 57.2 °F /  14 °C 50.7 °F /  10.4 °C 30.3in /  1025.7hPa West 2.9mph /  4.7km/h 8mph /  12.9km/h 79% 0in /  0.0mm 439 W/m2
16:03 57.6 °F /  14.2 °C 51.1 °F /  10.6 °C 30.3in /  1025.7hPa NW 2mph /  3.2km/h 3mph /  4.8km/h 79% 0in /  0.0mm 404 W/m2
16:08 57.7 °F /  14.3 °C 50.9 °F /  10.5 °C 30.3in /  1025.7hPa SE 0.9mph /  1.4km/h 3mph /  4.8km/h 78% 0in /  0.0mm 401 W/m2
16:13 57.9 °F /  14.4 °C 50.7 °F /  10.4 °C 30.3in /  1025.7hPa WSW 2.9mph /  4.7km/h 6mph /  9.7km/h 77% 0in /  0.0mm 446 W/m2
16:18 57.9 °F /  14.4 °C 50.7 °F /  10.4 °C 30.3in /  1025.7hPa WNW 4.9mph /  7.9km/h 6mph /  9.7km/h 77% 0in /  0.0mm 366 W/m2
16:23 57.9 °F /  14.4 °C 50.7 °F /  10.4 °C 30.3in /  1026.1hPa NW 2.9mph /  4.7km/h 5mph /  8km/h 77% 0in /  0.0mm 320 W/m2
16:28 57.9 °F /  14.4 °C 50.4 °F /  10.2 °C 30.3in /  1025.7hPa WNW 4mph /  6.4km/h 7mph /  11.3km/h 76% 0in /  0.0mm 429 W/m2
16:33 57.9 °F /  14.4 °C 50.7 °F /  10.4 °C 30.3in /  1025.7hPa West 0.9mph /  1.4km/h 7mph /  11.3km/h 77% 0in /  0.0mm 464 W/m2
16:38 58.1 °F /  14.5 °C 50.9 °F /  10.5 °C 30.3in /  1026.1hPa West 2.9mph /  4.7km/h 7mph /  11.3km/h 77% 0in /  0.0mm 367 W/m2
16:43 58.3 °F /  14.6 °C 50.7 °F /  10.4 °C 30.3in /  1025.7hPa West 0.9mph /  1.4km/h 5mph /  8km/h 76% 0in /  0.0mm 359 W/m2
16:48 58.3 °F /  14.6 °C 50.7 °F /  10.4 °C 30.3in /  1025.7hPa West 0.9mph /  1.4km/h 7mph /  11.3km/h 76% 0in /  0.0mm 392 W/m2
16:53 58.3 °F /  14.6 °C 51.1 °F /  10.6 °C 30.3in /  1025.7hPa NW 2mph /  3.2km/h 4mph /  6.4km/h 77% 0in /  0.0mm 292 W/m2
16:58 58.5 °F /  14.7 °C 51.3 °F /  10.7 °C 30.3in /  1025.7hPa WNW 4mph /  6.4km/h 5mph /  8km/h 77% 0in /  0.0mm 422 W/m2
17:03 58.5 °F /  14.7 °C 51.3 °F /  10.7 °C 30.3in /  1025.7hPa West 2mph /  3.2km/h 11mph /  17.7km/h 77% 0in /  0.0mm 313 W/m2
17:08 58.3 °F /  14.6 °C 51.1 °F /  10.6 °C 30.3in /  1025.7hPa West 2mph /  3.2km/h 6mph /  9.7km/h 77% 0in /  0.0mm 250 W/m2
17:13 58.6 °F /  14.8 °C 51.4 °F /  10.8 °C 30.3in /  1025.7hPa WNW 8.1mph /  13km/h 11mph /  17.7km/h 77% 0in /  0.0mm 234 W/m2
17:18 58.6 °F /  14.8 °C 51.1 °F /  10.6 °C 30.3in /  1025.7hPa NW 2mph /  3.2km/h 5mph /  8km/h 76% 0in /  0.0mm 248 W/m2
17:23 58.5 °F /  14.7 °C 51.3 °F /  10.7 °C 30.3in /  1025.7hPa Calm   10mph /  16.1km/h 77% 0in /  0.0mm 378 W/m2
17:28 58.5 °F /  14.7 °C 51.3 °F /  10.7 °C 30.3in /  1025.7hPa NW 2.9mph /  4.7km/h 6mph /  9.7km/h 77% 0in /  0.0mm 304 W/m2
17:33 58.5 °F /  14.7 °C 50.9 °F /  10.5 °C 30.3in /  1025.7hPa SW 2.9mph /  4.7km/h 4mph /  6.4km/h 76% 0in /  0.0mm 269 W/m2
17:38 58.6 °F /  14.8 °C 51.4 °F /  10.8 °C 30.3in /  1025.7hPa Calm   1mph /  1.6km/h 77% 0in /  0.0mm 232 W/m2
17:43 58.8 °F /  14.9 °C 51.6 °F /  10.9 °C 30.3in /  1026.1hPa North 4mph /  6.4km/h 4mph /  6.4km/h 77% 0in /  0.0mm 237 W/m2
17:48 58.8 °F /  14.9 °C 51.3 °F /  10.7 °C 30.3in /  1026.1hPa NNE 2mph /  3.2km/h 2mph /  3.2km/h 76% 0in /  0.0mm 343 W/m2
17:53 59.4 °F /  15.2 °C 51.8 °F /  11 °C 30.3in /  1026.1hPa WNW 0.9mph /  1.4km/h 3mph /  4.8km/h 76% 0in /  0.0mm 306 W/m2
17:59 59.5 °F /  15.3 °C 52 °F /  11.1 °C 30.3in /  1026.1hPa NNW 4mph /  6.4km/h 8mph /  12.9km/h 76% 0in /  0.0mm 306 W/m2
18:04 59.5 °F /  15.3 °C 51.6 °F /  10.9 °C 30.3in /  1026.1hPa East 0.9mph /  1.4km/h 4mph /  6.4km/h 75% 0in /  0.0mm 188 W/m2
18:09 59.4 °F /  15.2 °C 51.1 °F /  10.6 °C 30.3in /  1026.1hPa NW 0.9mph /  1.4km/h 8mph /  12.9km/h 74% 0in /  0.0mm 139 W/m2
18:14 59.2 °F /  15.1 °C 51.3 °F /  10.7 °C 30.3in /  1026.4hPa SW 2mph /  3.2km/h 6mph /  9.7km/h 75% 0in /  0.0mm 137 W/m2
18:19 58.8 °F /  14.9 °C 50.9 °F /  10.5 °C 30.3in /  1026.4hPa WNW 2mph /  3.2km/h 7mph /  11.3km/h 75% 0in /  0.0mm 111 W/m2
18:24 58.6 °F /  14.8 °C 51.1 °F /  10.6 °C 30.3in /  1026.4hPa NW 2mph /  3.2km/h 3mph /  4.8km/h 76% 0in /  0.0mm 37 W/m2
18:29 58.5 °F /  14.7 °C 51.6 °F /  10.9 °C 30.3in /  1027.4hPa West 8.1mph /  13km/h 11mph /  17.7km/h 78% 0in /  0.0mm 21 W/m2
18:34 55.8 °F /  13.2 °C 49.3 °F /  9.6 °C 30.3in /  1027.1hPa West 4mph /  6.4km/h 10mph /  16.1km/h 79% 0.09in /  2.3mm 54 W/m2
18:39 54.3 °F /  12.4 °C 49.3 °F /  9.6 °C 30.3in /  1027.1hPa West 2mph /  3.2km/h 3mph /  4.8km/h 83% 0.09in /  2.3mm 141 W/m2
18:44 54 °F /  12.2 °C 50.2 °F /  10.1 °C 30.3in /  1027.1hPa West 4mph /  6.4km/h 4mph /  6.4km/h 87% 0.09in /  2.3mm 160 W/m2
18:49 53.6 °F /  12 °C 50.2 °F /  10.1 °C 30.3in /  1026.8hPa WSW 4.9mph /  7.9km/h 7mph /  11.3km/h 88% 0.1in /  2.5mm 139 W/m2
18:54 53.8 °F /  12.1 °C 50.4 °F /  10.2 °C 30.3in /  1026.8hPa Calm   3mph /  4.8km/h 88% 0.1in /  2.5mm 190 W/m2
18:59 54 °F /  12.2 °C 50.7 °F /  10.4 °C 30.3in /  1026.8hPa Calm   7mph /  11.3km/h 89% 0.1in /  2.5mm 162 W/m2
19:04 54.1 °F /  12.3 °C 50.9 °F /  10.5 °C 30.3in /  1026.8hPa ESE 0.9mph /  1.4km/h 4mph /  6.4km/h 89% 0.1in /  2.5mm 128 W/m2
19:09 54.1 °F /  12.3 °C 50.9 °F /  10.5 °C 30.3in /  1026.8hPa ENE 4mph /  6.4km/h 4mph /  6.4km/h 89% 0.1in /  2.5mm 153 W/m2
19:14 54.9 °F /  12.7 °C 52 °F /  11.1 °C 30.3in /  1026.8hPa SW 2mph /  3.2km/h 3mph /  4.8km/h 90% 0.1in /  2.5mm 364 W/m2
19:20 55.6 °F /  13.1 °C 52.7 °F /  11.5 °C 30.3in /  1026.8hPa WNW 2mph /  3.2km/h 3mph /  4.8km/h 90% 0.1in /  2.5mm 306 W/m2
19:25 55.8 °F /  13.2 °C 52.3 °F /  11.3 °C 30.3in /  1026.8hPa West 2.9mph /  4.7km/h 6mph /  9.7km/h 88% 0.1in /  2.5mm 267 W/m2
19:30 55.6 °F /  13.1 °C 51.8 °F /  11 °C 30.3in /  1026.8hPa West 0.9mph /  1.4km/h 3mph /  4.8km/h 87% 0.06in /  1.5mm 74 W/m2
19:35 55.2 °F /  12.9 °C 51.8 °F /  11 °C 30.3in /  1026.8hPa NNE 0.9mph /  1.4km/h 6mph /  9.7km/h 88% 0.01in /  0.2mm 97 W/m2
19:40 55 °F /  12.8 °C 51.6 °F /  10.9 °C 30.3in /  1027.1hPa WNW 0.9mph /  1.4km/h 3mph /  4.8km/h 88% 0.01in /  0.2mm 88 W/m2
19:45 54.9 °F /  12.7 °C 51.4 °F /  10.8 °C 30.3in /  1027.1hPa North 0.9mph /  1.4km/h 4mph /  6.4km/h 88% 0.01in /  0.2mm 88 W/m2
19:50 54.9 °F /  12.7 °C 51.4 °F /  10.8 °C 30.3in /  1027.1hPa WSW 0.9mph /  1.4km/h 6mph /  9.7km/h 88% 0in /  0.0mm 176 W/m2
19:55 55 °F /  12.8 °C 51.8 °F /  11 °C 30.3in /  1027.1hPa West 2mph /  3.2km/h 2mph /  3.2km/h 89% 0in /  0.0mm 174 W/m2
20:00 55 °F /  12.8 °C 51.6 °F /  10.9 °C 30.3in /  1027.1hPa WNW 0.9mph /  1.4km/h 2mph /  3.2km/h 88% 0in /  0.0mm 53 W/m2
20:05 54.7 °F /  12.6 °C 51.3 °F /  10.7 °C 30.3in /  1027.1hPa West 0.9mph /  1.4km/h 4mph /  6.4km/h 88% 0in /  0.0mm 60 W/m2
20:10 54.7 °F /  12.6 °C 51.4 °F /  10.8 °C 30.3in /  1027.1hPa West 0.9mph /  1.4km/h 4mph /  6.4km/h 89% 0in /  0.0mm 69 W/m2
20:15 54.5 °F /  12.5 °C 51.3 °F /  10.7 °C 30.3in /  1027.4hPa Calm   1mph /  1.6km/h 89% 0in /  0.0mm 39 W/m2
20:20 54.1 °F /  12.3 °C 50.9 °F /  10.5 °C 30.3in /  1027.1hPa SE 4mph /  6.4km/h 4mph /  6.4km/h 89% 0in /  0.0mm 37 W/m2
20:25 53.8 °F /  12.1 °C 50.5 °F /  10.3 °C 30.3in /  1027.4hPa Calm   1mph /  1.6km/h 89% 0in /  0.0mm 40 W/m2
20:30 53.4 °F /  11.9 °C 50.5 °F /  10.3 °C 30.3in /  1027.4hPa NW 2mph /  3.2km/h 6mph /  9.7km/h 90% 0in /  0.0mm 19 W/m2
20:35 53.2 °F /  11.8 °C 50.4 °F /  10.2 °C 30.3in /  1027.4hPa Calm   1mph /  1.6km/h 90% 0in /  0.0mm 14 W/m2
20:40 52.9 °F /  11.6 °C 50 °F /  10 °C 30.3in /  1027.4hPa WNW 2mph /  3.2km/h 3mph /  4.8km/h 90% 0in /  0.0mm 14 W/m2
20:45 52.5 °F /  11.4 °C 50 °F /  10 °C 30.3in /  1027.4hPa West 0.9mph /  1.4km/h 3mph /  4.8km/h 91% 0in /  0.0mm 14 W/m2
20:50 52.5 °F /  11.4 °C 50 °F /  10 °C 30.4in /  1027.8hPa WSW 0.9mph /  1.4km/h 5mph /  8km/h 91% 0in /  0.0mm 16 W/m2
20:55 52.3 °F /  11.3 °C 49.8 °F /  9.9 °C 30.4in /  1027.8hPa Calm   2mph /  3.2km/h 91% 0in /  0.0mm 14 W/m2
21:00 52.3 °F /  11.3 °C 49.8 °F /  9.9 °C 30.4in /  1027.8hPa NW 0.9mph /  1.4km/h 2mph /  3.2km/h 91% 0in /  0.0mm 16 W/m2
21:05 52.3 °F /  11.3 °C 49.8 °F /  9.9 °C 30.4in /  1027.8hPa East 2mph /  3.2km/h 2mph /  3.2km/h 91% 0in /  0.0mm 12 W/m2
21:10 52.3 °F /  11.3 °C 50 °F /  10 °C 30.4in /  1027.8hPa Calm   1mph /  1.6km/h 92% 0in /  0.0mm 7 W/m2
21:15 52.3 °F /  11.3 °C 50 °F /  10 °C 30.4in /  1028.1hPa Calm   2mph /  3.2km/h 92% 0in /  0.0mm 0 W/m2
21:20 52.7 °F /  11.5 °C 50.4 °F /  10.2 °C 30.4in /  1028.1hPa WSW 2mph /  3.2km/h 3mph /  4.8km/h 92% 0in /  0.0mm 0 W/m2
21:25 52.9 °F /  11.6 °C 50.5 °F /  10.3 °C 30.4in /  1028.1hPa West 0.9mph /  1.4km/h 2mph /  3.2km/h 92% 0in /  0.0mm 0 W/m2
21:30 52.7 °F /  11.5 °C 50.4 °F /  10.2 °C 30.4in /  1027.8hPa SW 0.9mph /  1.4km/h 2mph /  3.2km/h 92% 0in /  0.0mm 0 W/m2
21:35 52.5 °F /  11.4 °C 50.2 °F /  10.1 °C 30.4in /  1028.1hPa SW 2mph /  3.2km/h 2mph /  3.2km/h 92% 0in /  0.0mm 0 W/m2
21:40 52.3 °F /  11.3 °C 50 °F /  10 °C 30.4in /  1028.1hPa Calm   1mph /  1.6km/h 92% 0in /  0.0mm 0 W/m2
21:45 52.2 °F /  11.2 °C 49.8 °F /  9.9 °C 30.4in /  1028.1hPa SW 0.9mph /  1.4km/h 2mph /  3.2km/h 92% 0in /  0.0mm 0 W/m2
21:50 51.8 °F /  11 °C 49.6 °F /  9.8 °C 30.4in /  1028.1hPa SW 0.9mph /  1.4km/h 1mph /  1.6km/h 92% 0in /  0.0mm 0 W/m2
21:55 51.4 °F /  10.8 °C 49.3 °F /  9.6 °C 30.4in /  1028.1hPa Calm   1mph /  1.6km/h 92% 0in /  0.0mm 0 W/m2
22:00 51.3 °F /  10.7 °C 49.3 °F /  9.6 °C 30.4in /  1028.1hPa WSW 0.9mph /  1.4km/h 3mph /  4.8km/h 93% 0in /  0.0mm 0 W/m2
22:05 50.9 °F /  10.5 °C 48.9 °F /  9.4 °C 30.4in /  1028.1hPa Calm   2mph /  3.2km/h 93% 0in /  0.0mm 0 W/m2
22:10 50.7 °F /  10.4 °C 48.7 °F /  9.3 °C 30.4in /  1028.5hPa WSW 0.9mph /  1.4km/h 2mph /  3.2km/h 93% 0in /  0.0mm 0 W/m2
22:15 50.5 °F /  10.3 °C 48.6 °F /  9.2 °C 30.4in /  1028.5hPa WSW 0.9mph /  1.4km/h 2mph /  3.2km/h 93% 0in /  0.0mm 0 W/m2
22:20 50.4 °F /  10.2 °C 48.4 °F /  9.1 °C 30.4in /  1028.1hPa WSW 0.9mph /  1.4km/h 1mph /  1.6km/h 93% 0in /  0.0mm 0 W/m2
22:25 49.8 °F /  9.9 °C 47.8 °F /  8.8 °C 30.4in /  1028.1hPa Calm   1mph /  1.6km/h 93% 0in /  0.0mm 0 W/m2
22:30 49.6 °F /  9.8 °C 47.7 °F /  8.7 °C 30.4in /  1028.1hPa WSW 0.9mph /  1.4km/h 1mph /  1.6km/h 93% 0in /  0.0mm 0 W/m2
22:35 49.5 °F /  9.7 °C 47.8 °F /  8.8 °C 30.4in /  1028.1hPa Calm     94% 0in /  0.0mm 0 W/m2
22:40 49.5 °F /  9.7 °C 47.8 °F /  8.8 °C 30.4in /  1028.1hPa Calm     94% 0in /  0.0mm 0 W/m2
22:45 49.3 °F /  9.6 °C 47.7 °F /  8.7 °C 30.4in /  1028.1hPa Calm   1mph /  1.6km/h 94% 0in /  0.0mm 0 W/m2
22:50 49.1 °F /  9.5 °C 47.5 °F /  8.6 °C 30.4in /  1028.1hPa Calm   1mph /  1.6km/h 94% 0in /  0.0mm 0 W/m2
22:55 48.9 °F /  9.4 °C 47.3 °F /  8.5 °C 30.4in /  1028.1hPa Calm     94% 0in /  0.0mm 0 W/m2
23:00 48.9 °F /  9.4 °C 47.3 °F /  8.5 °C 30.4in /  1028.5hPa Calm   1mph /  1.6km/h 94% 0in /  0.0mm 0 W/m2
23:05 48.7 °F /  9.3 °C 47.1 °F /  8.4 °C 30.4in /  1028.5hPa Calm     94% 0in /  0.0mm 0 W/m2
23:10 48.6 °F /  9.2 °C 46.9 °F /  8.3 °C 30.4in /  1028.5hPa Calm     94% 0in /  0.0mm 0 W/m2
23:15 48.4 °F /  9.1 °C 46.8 °F /  8.2 °C 30.4in /  1028.5hPa Calm     94% 0in /  0.0mm 0 W/m2
23:20 48.4 °F /  9.1 °C 46.8 °F /  8.2 °C 30.4in /  1028.5hPa Calm   1mph /  1.6km/h 94% 0in /  0.0mm 0 W/m2
23:25 48.4 °F /  9.1 °C 46.9 °F /  8.3 °C 30.4in /  1028.5hPa West 0.9mph /  1.4km/h 2mph /  3.2km/h 95% 0in /  0.0mm 0 W/m2
23:30 48.7 °F /  9.3 °C 47.3 °F /  8.5 °C 30.4in /  1028.5hPa West 0.9mph /  1.4km/h 4mph /  6.4km/h 95% 0in /  0.0mm 0 W/m2
23:35 48.9 °F /  9.4 °C 47.5 °F /  8.6 °C 30.4in /  1028.8hPa Calm   3mph /  4.8km/h 95% 0in /  0.0mm 0 W/m2
23:40 49.1 °F /  9.5 °C 47.7 °F /  8.7 °C 30.4in /  1028.8hPa NW 2mph /  3.2km/h 3mph /  4.8km/h 95% 0in /  0.0mm 0 W/m2
23:46 49.3 °F /  9.6 °C 47.8 °F /  8.8 °C 30.4in /  1028.8hPa WSW 0.9mph /  1.4km/h 4mph /  6.4km/h 95% 0in /  0.0mm 0 W/m2
23:51 49.3 °F /  9.6 °C 47.8 °F /  8.8 °C 30.4in /  1028.8hPa WNW 0.9mph /  1.4km/h 4mph /  6.4km/h 95% 0in /  0.0mm 0 W/m2
23:56 49.3 °F /  9.6 °C 47.8 °F /  8.8 °C 30.4in /  1028.8hPa West 2mph /  3.2km/h 6mph /  9.7km/h 95% 0in /  0.0mm 0 W/m2
Juneau County Weather
Compliments of Weather Underground - 4 mb